createdAt,value
2018-10-09T00:00:50.775Z,11.80
2018-10-09T00:03:18.236Z,11.80
2018-10-09T00:05:45.766Z,11.90
2018-10-09T00:08:13.289Z,11.80
2018-10-09T00:10:40.822Z,11.90
2018-10-09T00:13:08.353Z,11.90
2018-10-09T00:15:35.873Z,11.90
2018-10-09T00:18:03.445Z,11.90
2018-10-09T00:20:30.987Z,11.90
2018-10-09T00:22:59.614Z,11.90
2018-10-09T00:25:27.163Z,11.90
2018-10-09T00:27:55.379Z,12.00
2018-10-09T00:30:23.430Z,12.00
2018-10-09T00:32:51.018Z,12.00
2018-10-09T00:35:18.572Z,12.00
2018-10-09T00:37:46.248Z,12.00
2018-10-09T00:40:14.009Z,12.00
2018-10-09T00:42:41.583Z,12.00
2018-10-09T00:45:09.161Z,12.10
2018-10-09T00:47:36.757Z,12.10
2018-10-09T00:50:04.432Z,12.10
2018-10-09T00:52:32.001Z,12.10
2018-10-09T00:54:59.665Z,12.10
2018-10-09T00:57:27.255Z,12.20
2018-10-09T00:59:54.807Z,12.20
2018-10-09T01:02:22.308Z,12.20
2018-10-09T01:04:49.860Z,12.20
2018-10-09T01:07:17.426Z,12.20
2018-10-09T01:09:44.946Z,12.20
2018-10-09T01:12:12.509Z,12.30
2018-10-09T01:14:40.053Z,12.30
2018-10-09T01:17:07.579Z,12.30
2018-10-09T01:19:35.150Z,12.30
2018-10-09T01:22:02.714Z,12.30
2018-10-09T01:24:30.242Z,12.30
2018-10-09T01:26:57.790Z,12.30
2018-10-09T01:29:25.325Z,12.30
2018-10-09T01:31:53.014Z,12.40
2018-10-09T01:34:20.576Z,12.40
2018-10-09T01:36:48.128Z,12.40
2018-10-09T01:39:15.661Z,12.40
2018-10-09T01:41:43.178Z,12.40
2018-10-09T01:44:10.704Z,12.30
2018-10-09T01:46:38.283Z,12.40
2018-10-09T01:49:05.848Z,12.40
2018-10-09T01:51:33.429Z,12.40
2018-10-09T01:54:00.924Z,12.40
2018-10-09T01:56:28.493Z,12.40
2018-10-09T01:58:56.034Z,12.40
2018-10-09T02:01:23.564Z,12.40
2018-10-09T02:03:51.100Z,12.40
2018-10-09T02:06:18.600Z,12.40
2018-10-09T02:08:46.168Z,12.40
2018-10-09T02:11:13.668Z,12.40
2018-10-09T02:13:41.218Z,12.40
2018-10-09T02:16:08.804Z,12.50
2018-10-09T02:18:36.362Z,12.50
2018-10-09T02:21:03.872Z,12.50
2018-10-09T02:23:31.416Z,12.50
2018-10-09T02:25:59.016Z,12.50
2018-10-09T02:28:26.523Z,12.50
2018-10-09T02:30:54.070Z,12.50
2018-10-09T02:33:21.833Z,12.50
2018-10-09T02:35:49.349Z,12.50
2018-10-09T02:38:16.878Z,12.50
2018-10-09T02:40:44.384Z,12.50
2018-10-09T02:43:11.914Z,12.50
2018-10-09T02:45:39.446Z,12.50
2018-10-09T02:48:07.039Z,12.50
2018-10-09T02:50:34.594Z,12.50
2018-10-09T02:53:02.113Z,12.50
2018-10-09T02:55:29.631Z,12.50
2018-10-09T02:57:57.167Z,12.50
2018-10-09T03:00:24.695Z,12.50
2018-10-09T03:02:52.258Z,12.50
2018-10-09T03:05:19.820Z,12.50
2018-10-09T03:07:47.341Z,12.50
2018-10-09T03:10:14.892Z,12.60
2018-10-09T03:12:42.401Z,12.60
2018-10-09T03:15:09.929Z,12.60
2018-10-09T03:17:37.471Z,12.60
2018-10-09T03:20:05.065Z,12.60
2018-10-09T03:22:32.601Z,12.60
2018-10-09T03:25:00.118Z,12.60
2018-10-09T03:27:27.662Z,12.60
2018-10-09T03:29:55.215Z,12.60
2018-10-09T03:32:22.712Z,12.60
2018-10-09T03:34:50.248Z,12.70
2018-10-09T03:37:17.771Z,12.60
2018-10-09T03:39:45.307Z,12.60
2018-10-09T03:42:12.872Z,12.60
2018-10-09T03:44:40.479Z,12.60
2018-10-09T03:47:08.252Z,12.60
2018-10-09T03:49:35.947Z,12.50
2018-10-09T03:52:03.491Z,12.60
2018-10-09T03:54:31.094Z,12.50
2018-10-09T03:56:58.658Z,12.60
2018-10-09T03:59:26.207Z,12.50
2018-10-09T04:01:53.801Z,12.50
2018-10-09T04:04:21.402Z,12.60
2018-10-09T04:06:48.976Z,12.60
2018-10-09T04:09:16.538Z,12.60
2018-10-09T04:11:44.081Z,12.60
2018-10-09T04:14:11.680Z,12.60
2018-10-09T04:16:39.347Z,12.60
2018-10-09T04:19:06.928Z,12.60
2018-10-09T04:21:34.514Z,12.60
2018-10-09T04:24:02.069Z,12.60
2018-10-09T04:26:29.634Z,12.60
2018-10-09T04:28:57.154Z,12.60
2018-10-09T04:31:24.779Z,12.60
2018-10-09T04:33:52.303Z,12.60
2018-10-09T04:36:19.852Z,12.60
2018-10-09T04:38:47.407Z,12.60
2018-10-09T04:41:14.932Z,12.60
2018-10-09T04:43:42.477Z,12.60
2018-10-09T04:46:10.038Z,12.80
2018-10-09T04:48:37.588Z,13.20
2018-10-09T04:51:05.161Z,13.50
2018-10-09T04:53:32.788Z,13.70
2018-10-09T04:56:00.333Z,13.80
2018-10-09T04:58:27.845Z,13.70
2018-10-09T05:00:55.444Z,13.60
2018-10-09T05:03:23.045Z,13.70
2018-10-09T05:05:50.705Z,13.80
2018-10-09T05:08:18.263Z,13.90
2018-10-09T05:10:45.817Z,13.90
2018-10-09T05:13:13.427Z,14.00
2018-10-09T05:15:40.959Z,14.00
2018-10-09T05:18:08.489Z,14.10
2018-10-09T05:20:36.071Z,14.20
2018-10-09T05:23:03.782Z,14.30
2018-10-09T05:25:31.430Z,14.40
2018-10-09T05:27:59.052Z,14.50
2018-10-09T05:30:26.637Z,14.60
2018-10-09T05:32:54.198Z,14.70
2018-10-09T05:35:21.835Z,14.80
2018-10-09T05:37:49.583Z,14.80
2018-10-09T05:40:17.261Z,14.70
2018-10-09T05:42:44.971Z,14.70
2018-10-09T05:45:12.553Z,14.60
2018-10-09T05:47:40.056Z,14.60
2018-10-09T05:50:09.073Z,14.50
2018-10-09T05:52:37.087Z,14.60
2018-10-09T05:55:04.767Z,14.60
2018-10-09T05:57:32.558Z,14.50
2018-10-09T06:00:00.187Z,14.50
2018-10-09T06:02:27.812Z,14.50
2018-10-09T06:04:55.428Z,14.60
2018-10-09T06:07:23.402Z,14.70
2018-10-09T06:09:50.993Z,15.00
2018-10-09T06:12:18.598Z,15.30
2018-10-09T06:14:46.191Z,15.50
2018-10-09T06:17:13.803Z,15.50
2018-10-09T06:19:41.384Z,15.50
2018-10-09T06:22:08.962Z,15.60
2018-10-09T06:24:36.542Z,15.70
2018-10-09T06:27:04.204Z,15.60
2018-10-09T06:29:31.806Z,15.70
2018-10-09T06:31:59.344Z,15.70
2018-10-09T06:34:26.953Z,15.70
2018-10-09T06:36:54.569Z,15.80
2018-10-09T06:39:22.205Z,15.80
2018-10-09T06:41:49.746Z,15.80
2018-10-09T06:44:17.297Z,15.80
2018-10-09T06:46:44.830Z,15.70
2018-10-09T06:49:12.368Z,15.60
2018-10-09T06:51:39.922Z,15.40
2018-10-09T06:54:07.628Z,15.30
2018-10-09T06:56:35.026Z,15.20
2018-10-09T06:59:02.546Z,15.10
2018-10-09T07:01:30.126Z,15.10
2018-10-09T07:03:57.843Z,15.00
2018-10-09T07:06:25.453Z,14.90
2018-10-09T07:08:52.971Z,14.80
2018-10-09T07:11:20.591Z,14.80
2018-10-09T07:13:48.076Z,14.80
2018-10-09T07:16:15.640Z,14.80
2018-10-09T07:18:43.216Z,14.80
2018-10-09T07:21:10.730Z,14.80
2018-10-09T07:23:38.297Z,14.90
2018-10-09T07:26:05.935Z,15.00
2018-10-09T07:28:33.511Z,15.00
2018-10-09T07:31:01.028Z,15.00
2018-10-09T07:33:28.596Z,15.10
2018-10-09T07:35:56.190Z,15.10
2018-10-09T07:38:23.945Z,15.20
2018-10-09T07:40:51.543Z,15.20
2018-10-09T07:43:19.107Z,15.20
2018-10-09T07:45:46.618Z,15.30
2018-10-09T07:48:14.177Z,15.30
2018-10-09T07:50:41.706Z,15.20
2018-10-09T07:53:09.229Z,15.20
2018-10-09T07:55:36.800Z,15.10
2018-10-09T07:58:04.385Z,15.00
2018-10-09T08:00:31.950Z,15.00
2018-10-09T08:02:59.529Z,15.00
2018-10-09T08:05:27.108Z,15.00
2018-10-09T08:07:54.697Z,15.00
2018-10-09T08:10:22.319Z,15.00
2018-10-09T08:12:49.851Z,15.00
2018-10-09T08:15:17.429Z,15.00
2018-10-09T08:17:44.961Z,15.10
2018-10-09T08:20:12.479Z,15.20
2018-10-09T08:22:40.129Z,15.20
2018-10-09T08:25:07.600Z,15.30
2018-10-09T08:27:35.176Z,15.30
2018-10-09T08:30:02.741Z,15.30
2018-10-09T08:32:30.305Z,15.40
2018-10-09T08:34:57.889Z,15.40
2018-10-09T08:37:25.444Z,15.40
2018-10-09T08:39:53.011Z,15.40
2018-10-09T08:42:20.555Z,15.40
2018-10-09T08:44:48.121Z,15.30
2018-10-09T08:47:15.687Z,15.40
2018-10-09T08:49:43.206Z,15.40
2018-10-09T08:52:10.785Z,15.40
2018-10-09T08:54:38.359Z,15.40
2018-10-09T08:57:05.997Z,15.50
2018-10-09T08:59:33.606Z,15.50
2018-10-09T09:02:01.165Z,15.60
2018-10-09T09:04:28.759Z,15.60
2018-10-09T09:06:56.362Z,15.70
2018-10-09T09:09:23.920Z,15.80
2018-10-09T09:11:51.540Z,15.90
2018-10-09T09:14:19.066Z,16.10
2018-10-09T09:16:46.603Z,16.20
2018-10-09T09:19:14.155Z,16.30
2018-10-09T09:21:41.726Z,16.40
2018-10-09T09:24:09.283Z,16.50
2018-10-09T09:26:36.895Z,16.60
2018-10-09T09:29:04.505Z,16.70
2018-10-09T09:31:32.128Z,16.90
2018-10-09T09:33:59.659Z,17.00
2018-10-09T09:36:27.242Z,17.10
2018-10-09T09:38:54.759Z,17.10
2018-10-09T09:41:22.398Z,17.20
2018-10-09T09:43:49.946Z,17.30
2018-10-09T09:46:17.895Z,17.40
2018-10-09T09:48:45.381Z,17.50
2018-10-09T09:51:12.945Z,17.50
2018-10-09T09:53:40.576Z,17.60
2018-10-09T09:56:08.146Z,17.60
2018-10-09T09:58:35.842Z,17.60
2018-10-09T10:01:07.237Z,17.60
2018-10-09T10:03:35.288Z,17.60
2018-10-09T10:06:02.802Z,17.60
2018-10-09T10:08:30.340Z,17.50
2018-10-09T10:10:57.934Z,17.50
2018-10-09T10:13:25.516Z,17.70
2018-10-09T10:15:53.122Z,18.00
2018-10-09T10:18:20.734Z,18.10
2018-10-09T10:20:48.324Z,18.10
2018-10-09T10:23:15.908Z,18.00
2018-10-09T10:25:43.441Z,18.00
2018-10-09T10:28:11.008Z,18.00
2018-10-09T10:30:38.578Z,18.00
2018-10-09T10:33:06.172Z,17.90
2018-10-09T10:35:33.753Z,17.90
2018-10-09T10:38:01.391Z,18.00
2018-10-09T10:40:28.966Z,18.20
2018-10-09T10:42:56.508Z,18.20
2018-10-09T10:45:24.036Z,18.30
2018-10-09T10:47:51.624Z,18.30
2018-10-09T10:50:19.243Z,18.20
2018-10-09T10:52:46.792Z,18.30
2018-10-09T10:55:14.413Z,18.40
2018-10-09T10:57:42.005Z,18.50
2018-10-09T11:00:09.566Z,18.50
2018-10-09T11:02:37.143Z,18.60
2018-10-09T11:05:04.846Z,18.70
2018-10-09T11:07:32.550Z,18.50
2018-10-09T11:10:00.233Z,18.40
2018-10-09T11:12:27.797Z,18.20
2018-10-09T11:14:55.310Z,18.10
2018-10-09T11:17:22.887Z,18.20
2018-10-09T11:19:50.489Z,18.30
2018-10-09T11:22:17.990Z,18.40
2018-10-09T11:24:45.546Z,18.50
2018-10-09T11:27:13.063Z,18.60
2018-10-09T11:29:40.634Z,18.70
2018-10-09T11:32:08.190Z,18.80
2018-10-09T11:34:36.026Z,18.80
2018-10-09T11:37:03.641Z,18.80
2018-10-09T11:39:31.152Z,18.90
2018-10-09T11:41:58.692Z,18.80
2018-10-09T11:44:26.259Z,18.80
2018-10-09T11:46:53.845Z,18.80
2018-10-09T11:49:24.312Z,18.70
2018-10-09T11:51:51.945Z,18.60
2018-10-09T11:54:19.445Z,18.70
2018-10-09T11:56:47.002Z,18.80
2018-10-09T11:59:14.535Z,18.90
2018-10-09T12:01:42.156Z,19.00
2018-10-09T12:04:09.721Z,19.00
2018-10-09T12:06:37.302Z,18.90
2018-10-09T12:09:07.884Z,18.90
2018-10-09T12:11:35.446Z,18.80
2018-10-09T12:14:03.038Z,18.80
2018-10-09T12:16:30.613Z,18.80
2018-10-09T12:18:58.230Z,18.80
2018-10-09T12:21:25.809Z,18.90
2018-10-09T12:23:53.406Z,19.00
2018-10-09T12:26:20.950Z,19.00
2018-10-09T12:28:48.543Z,19.00
2018-10-09T12:31:16.100Z,18.90
2018-10-09T12:33:43.687Z,18.80
2018-10-09T12:36:11.274Z,18.70
2018-10-09T12:38:38.840Z,18.80
2018-10-09T12:41:06.418Z,18.80
2018-10-09T12:43:33.968Z,18.90
2018-10-09T12:46:01.498Z,19.00
2018-10-09T12:48:29.079Z,19.00
2018-10-09T12:50:56.640Z,19.10
2018-10-09T12:53:24.272Z,19.00
2018-10-09T12:55:51.864Z,19.00
2018-10-09T12:58:20.307Z,19.00
2018-10-09T13:00:47.875Z,19.10
2018-10-09T13:03:15.477Z,19.10
2018-10-09T13:05:43.011Z,19.10
2018-10-09T13:08:10.603Z,19.00
2018-10-09T13:10:38.157Z,19.00
2018-10-09T13:13:06.967Z,19.00
2018-10-09T13:15:34.485Z,19.20
2018-10-09T13:18:02.051Z,19.30
2018-10-09T13:20:29.629Z,19.40
2018-10-09T13:22:57.217Z,19.50
2018-10-09T13:25:24.866Z,19.50
2018-10-09T13:27:52.452Z,19.50
2018-10-09T13:30:20.025Z,19.40
2018-10-09T13:32:47.564Z,19.30
2018-10-09T13:35:15.137Z,19.30
2018-10-09T13:37:42.691Z,19.40
2018-10-09T13:40:10.269Z,19.60
2018-10-09T13:42:37.817Z,19.80
2018-10-09T13:45:05.568Z,20.00
2018-10-09T13:47:33.169Z,20.30
2018-10-09T13:50:00.729Z,20.80
2018-10-09T13:52:28.332Z,21.10
2018-10-09T13:54:55.909Z,21.20
2018-10-09T13:57:23.537Z,21.10
2018-10-09T13:59:51.088Z,21.30
2018-10-09T14:02:18.880Z,21.60
2018-10-09T14:04:46.504Z,22.00
2018-10-09T14:07:14.090Z,22.40
2018-10-09T14:09:41.638Z,22.50
2018-10-09T14:12:09.244Z,22.60
2018-10-09T14:14:37.055Z,22.70
2018-10-09T14:17:04.678Z,22.90
2018-10-09T14:19:32.274Z,23.00
2018-10-09T14:21:59.851Z,23.10
2018-10-09T14:24:27.430Z,23.20
2018-10-09T14:26:55.002Z,23.30
2018-10-09T14:29:22.550Z,23.40
2018-10-09T14:31:50.194Z,23.60
2018-10-09T14:34:17.733Z,23.60
2018-10-09T14:36:45.320Z,23.70
2018-10-09T14:39:12.916Z,23.60
2018-10-09T14:41:40.442Z,23.60
2018-10-09T14:44:08.060Z,23.40
2018-10-09T14:46:35.610Z,23.30
2018-10-09T14:49:03.165Z,23.20
2018-10-09T14:51:30.767Z,23.20
2018-10-09T14:53:58.290Z,23.30
2018-10-09T14:56:25.988Z,23.20
2018-10-09T14:58:53.613Z,23.20
2018-10-09T15:01:21.173Z,23.10
2018-10-09T15:03:48.693Z,23.10
2018-10-09T15:06:16.294Z,23.00
2018-10-09T15:08:43.865Z,23.00
2018-10-09T15:11:11.380Z,22.90
2018-10-09T15:13:38.965Z,22.80
2018-10-09T15:16:06.595Z,22.70
2018-10-09T15:18:34.183Z,22.50
2018-10-09T15:21:01.776Z,22.30
2018-10-09T15:23:29.341Z,22.20
2018-10-09T15:25:56.874Z,22.10
2018-10-09T15:28:24.481Z,22.00
2018-10-09T15:30:52.060Z,21.90
2018-10-09T15:33:19.655Z,21.80
2018-10-09T15:35:47.213Z,21.60
2018-10-09T15:38:14.813Z,21.30
2018-10-09T15:40:42.711Z,21.00
2018-10-09T15:43:10.321Z,20.60
2018-10-09T15:45:37.889Z,20.20
2018-10-09T15:48:05.481Z,19.90
2018-10-09T15:50:33.037Z,19.60
2018-10-09T15:53:00.614Z,19.20
2018-10-09T15:55:28.223Z,18.90
2018-10-09T15:57:55.826Z,18.50
2018-10-09T16:00:23.512Z,18.20
2018-10-09T16:02:51.403Z,18.10
2018-10-09T16:05:18.995Z,17.90
2018-10-09T16:07:46.597Z,17.70
2018-10-09T16:10:14.197Z,17.60
2018-10-09T16:12:41.757Z,17.50
2018-10-09T16:15:09.408Z,17.30
2018-10-09T16:17:37.155Z,17.20
2018-10-09T16:20:05.317Z,17.10
2018-10-09T16:22:33.001Z,16.90
2018-10-09T16:25:00.629Z,16.80
2018-10-09T16:27:28.150Z,16.70
2018-10-09T16:29:55.704Z,16.60
2018-10-09T16:32:23.297Z,16.40
2018-10-09T16:34:50.855Z,16.40
2018-10-09T16:37:18.439Z,16.20
2018-10-09T16:39:46.058Z,16.10
2018-10-09T16:42:13.705Z,16.00
2018-10-09T16:44:41.274Z,15.90
2018-10-09T16:47:08.844Z,15.80
2018-10-09T16:49:37.444Z,15.60
2018-10-09T16:52:05.037Z,15.50
2018-10-09T16:54:32.677Z,15.40
2018-10-09T16:57:00.222Z,15.30
2018-10-09T16:59:28.727Z,15.20
2018-10-09T17:01:56.266Z,15.10
2018-10-09T17:04:23.885Z,15.00
2018-10-09T17:06:51.557Z,14.90
2018-10-09T17:09:19.234Z,14.90
2018-10-09T17:11:46.876Z,14.80
2018-10-09T17:14:14.484Z,14.70
2018-10-09T17:16:42.095Z,14.60
2018-10-09T17:19:09.794Z,14.50
2018-10-09T17:21:37.426Z,14.50
2018-10-09T17:24:05.096Z,14.40
2018-10-09T17:26:32.764Z,14.30
2018-10-09T17:29:00.385Z,14.30
2018-10-09T17:31:28.122Z,14.20
2018-10-09T17:33:55.798Z,14.10
2018-10-09T17:36:23.500Z,14.00
2018-10-09T17:38:51.241Z,13.90
2018-10-09T17:41:19.843Z,13.80
2018-10-09T17:43:47.515Z,13.70
2018-10-09T17:46:15.275Z,13.70
2018-10-09T17:48:42.994Z,13.60
2018-10-09T17:51:10.608Z,13.50
2018-10-09T17:53:38.344Z,13.50
2018-10-09T17:56:06.092Z,13.40
2018-10-09T17:58:33.948Z,13.40
2018-10-09T18:01:01.640Z,13.30
2018-10-09T18:03:38.980Z,13.20
2018-10-09T18:06:06.756Z,13.20
2018-10-09T18:08:34.596Z,13.10
2018-10-09T18:11:02.358Z,13.10
2018-10-09T18:13:30.876Z,13.00
2018-10-09T18:15:58.698Z,13.00
2018-10-09T18:18:26.382Z,13.00
2018-10-09T18:20:54.165Z,12.90
2018-10-09T18:23:21.821Z,12.90
2018-10-09T18:25:49.548Z,12.80
2018-10-09T18:28:17.252Z,12.80
2018-10-09T18:30:45.024Z,12.70
2018-10-09T18:33:13.280Z,12.70
2018-10-09T18:35:41.369Z,12.60
2018-10-09T18:38:09.100Z,12.60
2018-10-09T18:40:36.872Z,12.60
2018-10-09T18:43:04.516Z,12.50
2018-10-09T18:45:33.107Z,12.50
2018-10-09T18:48:00.982Z,12.50
2018-10-09T18:50:28.765Z,12.40
2018-10-09T18:52:56.487Z,12.40
2018-10-09T18:55:24.244Z,12.40
2018-10-09T18:57:52.590Z,12.40
2018-10-09T19:00:20.744Z,12.30
2018-10-09T19:02:48.701Z,12.20
2018-10-09T19:05:16.491Z,12.20
2018-10-09T19:07:44.198Z,12.10
2018-10-09T19:10:12.059Z,12.10
2018-10-09T19:12:39.787Z,12.10
2018-10-09T19:15:07.783Z,12.00
2018-10-09T19:17:35.520Z,12.00
2018-10-09T19:20:03.368Z,11.90
2018-10-09T19:22:31.086Z,11.80
2018-10-09T19:24:58.866Z,11.80
2018-10-09T19:27:26.631Z,11.80
2018-10-09T19:29:54.317Z,11.80
2018-10-09T19:32:22.085Z,11.80
2018-10-09T19:34:49.842Z,11.80
2018-10-09T19:37:17.582Z,11.80
2018-10-09T19:39:45.370Z,11.70
2018-10-09T19:42:13.031Z,11.70
2018-10-09T19:44:40.704Z,11.60
2018-10-09T19:47:08.427Z,11.60
2018-10-09T19:49:36.762Z,11.50
2018-10-09T19:52:04.684Z,11.50
2018-10-09T19:54:32.945Z,11.50
2018-10-09T19:57:01.067Z,11.50
2018-10-09T19:59:28.818Z,11.50
2018-10-09T20:01:56.545Z,11.40
2018-10-09T20:04:24.233Z,11.40
2018-10-09T20:06:51.920Z,11.40
2018-10-09T20:09:19.593Z,11.40
2018-10-09T20:11:47.311Z,11.40
2018-10-09T20:14:15.265Z,11.40
2018-10-09T20:16:43.027Z,11.30
2018-10-09T20:19:17.275Z,11.30
2018-10-09T20:21:44.943Z,11.30
2018-10-09T20:24:12.581Z,11.30
2018-10-09T20:26:40.851Z,11.20
2018-10-09T20:29:08.508Z,11.20
2018-10-09T20:31:36.167Z,11.20
2018-10-09T20:34:03.822Z,11.20
2018-10-09T20:36:31.514Z,11.10
2018-10-09T20:38:59.268Z,11.10
2018-10-09T20:41:27.541Z,11.10
2018-10-09T20:43:55.155Z,11.10
2018-10-09T20:46:22.793Z,11.00
2018-10-09T20:48:50.416Z,11.00
2018-10-09T20:51:18.044Z,11.00
2018-10-09T20:53:45.991Z,11.00
2018-10-09T20:56:13.608Z,11.00
2018-10-09T20:58:41.222Z,11.00
2018-10-09T21:01:08.951Z,10.90
2018-10-09T21:03:36.529Z,10.90
2018-10-09T21:06:04.251Z,10.80
2018-10-09T21:08:31.889Z,10.80
2018-10-09T21:10:59.571Z,10.80
2018-10-09T21:13:27.161Z,10.70
2018-10-09T21:15:54.737Z,10.70
2018-10-09T21:18:22.291Z,10.70
2018-10-09T21:20:49.861Z,10.70
2018-10-09T21:23:17.409Z,10.60
2018-10-09T21:25:44.999Z,10.60
2018-10-09T21:28:12.595Z,10.60
2018-10-09T21:30:40.175Z,10.60
2018-10-09T21:33:07.707Z,10.60
2018-10-09T21:35:35.299Z,10.70
2018-10-09T21:38:02.914Z,10.70
2018-10-09T21:40:30.560Z,10.70
2018-10-09T21:42:58.143Z,10.70
2018-10-09T21:45:25.754Z,10.70
2018-10-09T21:48:00.542Z,10.70
2018-10-09T21:50:28.270Z,10.80
2018-10-09T21:52:56.104Z,10.80
2018-10-09T21:55:23.888Z,10.80
2018-10-09T21:57:51.456Z,10.90
2018-10-09T22:00:18.974Z,10.90
2018-10-09T22:02:46.542Z,10.90
2018-10-09T22:05:14.078Z,10.90
2018-10-09T22:07:41.640Z,10.90
2018-10-09T22:10:09.176Z,10.90
2018-10-09T22:12:36.741Z,11.00
2018-10-09T22:15:04.627Z,11.00
2018-10-09T22:17:32.285Z,11.00
2018-10-09T22:19:59.998Z,11.00
2018-10-09T22:22:27.616Z,11.00
2018-10-09T22:24:55.323Z,11.00
2018-10-09T22:27:22.953Z,11.00
2018-10-09T22:29:51.713Z,11.00
2018-10-09T22:32:19.301Z,11.00
2018-10-09T22:34:47.269Z,11.00
2018-10-09T22:37:14.841Z,11.00
2018-10-09T22:39:42.369Z,11.00
2018-10-09T22:42:09.959Z,11.00
2018-10-09T22:44:37.517Z,10.90
2018-10-09T22:47:05.277Z,10.90
2018-10-09T22:49:32.875Z,10.90
2018-10-09T22:52:00.569Z,10.90
2018-10-09T22:54:28.214Z,10.90
2018-10-09T22:56:55.930Z,11.00
2018-10-09T22:59:23.836Z,11.00
2018-10-09T23:01:51.380Z,11.00
2018-10-09T23:04:18.923Z,11.00
2018-10-09T23:06:46.540Z,11.00
2018-10-09T23:09:14.098Z,11.00
2018-10-09T23:11:41.637Z,11.10
2018-10-09T23:14:09.202Z,11.10
2018-10-09T23:16:37.007Z,11.10
2018-10-09T23:19:04.871Z,11.10
2018-10-09T23:21:32.396Z,11.10
2018-10-09T23:24:00.023Z,11.00
2018-10-09T23:26:27.576Z,11.10
2018-10-09T23:28:55.211Z,11.10
2018-10-09T23:31:22.686Z,11.10
2018-10-09T23:33:50.236Z,11.20
2018-10-09T23:36:17.762Z,11.20
2018-10-09T23:38:45.348Z,11.20
2018-10-09T23:41:12.909Z,11.10
2018-10-09T23:43:40.427Z,11.10
2018-10-09T23:46:08.082Z,11.20
2018-10-09T23:48:35.610Z,11.20
2018-10-09T23:51:03.178Z,11.20
2018-10-09T23:53:30.755Z,11.20
2018-10-09T23:55:58.432Z,11.20
2018-10-09T23:58:26.040Z,11.20
